Tignall, Georgia
Current Conditions -  °F | °C
As of 3:15 AM on Monday 26 Jan 2015 (Local Time) from KIIY Reporting Station
Clear Clear  
Wind Chill: 41°   Ceiling: Unl
Heat Index: 45°   Visibility: 10mi
Dew Point: 41°   Wind: 6mph
Humidity: 87%   Direction: 220°SW
Pressure: 29.7"   Gusts: NA
Location:  33.87°N, 82.74°W
Report Text: KIIY 260815Z AUTO 22005KT 10SM CLR 07/05 A2970 RMK AO2
Loading
Personal Weather Stations






























Interactive Weather Map New forecast layout! Learn more

10-Day Weather Forecast

Advertisements
Track Severe Weather on mobile